Main page
METAR-TAF:

METAR-TAF

Airports :

Humberside Airport

Humberside, England

latitude: 53-35N, longitude: 000-21W, elevation: 31 m

Current weather observation

The report was made 41 minutes ago, at 05:20 UTC
Wind 8 kt from the South/Southwest
Temperature 16°C
Humidity 88%
Pressure 1020 hPa
Visibility 10 km or more
no clouds below 1500 m and no cumulonimbus

METAR: EGNJ 180520Z 20008KT CAVOK 16/14 Q1020

Time: 07:01 (06:01 UTC)

Forecast

The report was made 1 hour and 0 minutes ago, at 05:01 UTC
Forecast valid from 18 at 06 UTC to 18 at 15 UTC
Wind 8 kt from the South/Southwest
Visibility 10 km or more
no clouds below 1500 m and no cumulonimbus

TAF: EGNJ 180501Z 1806/1815 21008KT CAVOK

Weather observations and forecasts of more than 4000 airports (METAR and TAF reports).

The available stations are represented by yellow and red dots on the map.

Hover mouse over dot to see the name of the station.

Then click to see weather observations and forecasts.

To change the map : click on the green buttons with a black cross to zoom in, on the green button with a dash to zoom out, or on the green arrows for adjacent maps.


METAR-TAF: